Latest Weather Observations for Borroloola

IDD60801

Issued at 9:05 am CST Wednesday 1 October 2014 (issued every 30 minutes, with the page automatically refreshed every 10 minutes)

About weather observations | Map of weather stations | Latest weather observations for NT | Other Formats
Station Details ID: 014723 Name: BORROLOOLA AIRPORT Lat: -16.08 Lon: 136.30 Height: 16.1 m
Data from the previous 72 hours. | See also: Recent months at Borroloola
Date/Time
CST
Temp
°C
App
Temp
°C
Dew
Point
Rel
Hum
%
Delta-T
°C
Wind Press
QNH
hPa
Press
MSL
hPa
Rain
since 9 am
mm
Dir
 
Spd
km/h
Gust
km/h
Spd
kts
Gust
kts
01/09:00am 28.3 29.6 18.4 55 6.3 SSW 9 15 5 8 1014.8 1014.7 0.0
01/08:30am 26.5 28.6 19.4 65 4.6 WSW 7 13 4 7 1015.0 1014.9 0.0
01/08:00am 25.0 26.7 19.4 71 3.6 SSW 9 13 5 7 1014.9 1014.8 0.0
01/07:30am 23.3 25.1 18.8 76 2.8 SSW 7 11 4 6 1014.7 1014.6 0.0
01/07:00am 21.0 23.9 18.2 84 1.7 CALM 0 0 0 0 1014.5 1014.4 0.0
01/06:30am 19.0 21.0 17.0 88 1.2 SW 2 6 1 3 1014.0 1013.9 0.0
01/06:00am 18.4 20.4 16.0 86 1.4 CALM 0 0 0 0 1013.7 1013.6 0.0
01/05:30am 19.1 21.1 16.0 82 1.8 CALM 0 0 0 0 1013.4 1013.3 0.0
01/05:00am 19.0 19.8 15.9 82 1.8 SW 6 7 3 4 1013.0 1012.9 0.0
01/04:30am 19.1 21.3 16.5 85 1.6 CALM 0 0 0 0 1012.8 1012.7 0.0
01/04:00am 19.8 21.7 16.6 82 1.9 SW 2 7 1 4 1012.6 1012.5 0.0
01/03:30am 20.1 22.5 17.1 83 1.8 CALM 0 0 0 0 1012.9 1012.8 0.0
01/03:00am 20.1 22.1 16.9 82 1.9 SSW 2 6 1 3 1012.9 1012.8 0.0
01/02:30am 20.2 22.5 16.8 81 2.1 CALM 0 0 0 0 1013.0 1012.9 0.0
01/02:00am 20.0 21.9 15.8 77 2.5 CALM 0 7 0 4 1013.2 1013.1 0.0
01/01:30am 21.1 21.7 17.7 81 2.1 NNW 11 11 6 6 1013.1 1013.0 0.0
01/01:00am 21.5 24.1 17.5 78 2.5 CALM 0 0 0 0 1013.9 1013.8 0.0
01/12:30am 22.2 25.0 18.0 77 2.6 CALM 0 0 0 0 1014.3 1014.2 0.0
01/12:00am 23.2 25.4 19.1 78 2.6 N 6 6 3 3 1014.6 1014.5 0.0
 
Date/Time
CST
Temp
°C
App
Temp
°C
Dew
Point
Rel
Hum
%
Delta-T
°C
Wind Press
QNH
hPa
Press
MSL
hPa
Rain
since 9 am
mm
Dir
 
Spd
km/h
Gust
km/h
Spd
kts
Gust
kts
30/11:30pm 23.5 26.1 19.2 77 2.7 NNE 4 7 2 4 1014.9 1014.8 0.0
30/11:00pm 23.8 25.3 18.9 74 3.1 NE 9 11 5 6 1015.0 1014.9 0.0
30/10:30pm 24.1 25.5 18.7 72 3.4 NE 9 11 5 6 1015.0 1014.9 0.0
30/10:00pm 24.6 26.4 18.8 70 3.7 NE 7 11 4 6 1014.9 1014.8 0.0
30/09:30pm 24.6 25.8 18.3 68 4.0 NNE 9 13 5 7 1014.7 1014.6 0.0
30/09:00pm 25.2 25.7 18.4 66 4.3 NNE 13 17 7 9 1014.6 1014.5 0.0
30/08:30pm 25.3 26.2 18.5 66 4.3 NNE 11 17 6 9 1014.4 1014.3 0.0
30/08:00pm 25.9 25.8 18.8 65 4.5 NNE 17 22 9 12 1014.2 1014.1 0.0
30/07:30pm 26.0 26.3 18.7 64 4.7 NNE 15 20 8 11 1013.9 1013.8 0.0
30/07:00pm 26.5 26.3 18.6 62 5.0 NNE 17 22 9 12 1013.5 1013.4 0.0
30/06:30pm 27.1 26.7 18.1 58 5.7 NNE 17 22 9 12 1013.2 1013.1 0.0
30/06:00pm 27.9 26.8 17.4 52 6.6 NNE 19 32 10 17 1012.9 1012.8 0.0
30/05:30pm 28.7 27.2 17.6 51 7.0 NNE 22 32 12 17 1012.4 1012.3 0.0
30/05:00pm 29.6 27.9 18.1 50 7.4 NE 24 33 13 18 1012.2 1012.1 0.0
30/04:30pm 30.6 28.8 17.0 44 8.6 NNE 22 30 12 16 1012.0 1011.9 0.0
30/04:00pm 31.3 29.3 16.5 41 9.3 NNE 22 32 12 17 1011.9 1011.8 0.0
30/03:30pm 32.5 30.4 16.3 37 10.2 NNE 22 33 12 18 1011.9 1011.8 0.0
30/03:00pm 32.4 30.4 15.0 35 10.7 NE 19 30 10 16 1011.9 1011.8 0.0
30/02:30pm 33.6 33.5 16.0 34 11.1 NE 11 22 6 12 1012.0 1011.9 0.0
30/02:00pm 33.2 30.3 15.2 33 11.2 NE 24 35 13 19 1012.4 1012.3 0.0
30/01:30pm 32.7 30.3 14.3 32 11.3 N 20 33 11 18 1012.6 1012.5 0.0
30/01:00pm 32.5 30.4 14.6 34 11.0 NNE 19 28 10 15 1013.1 1013.0 0.0
30/12:30pm 32.8 30.6 14.4 33 11.3 N 19 28 10 15 1013.5 1013.4 0.0
30/12:00pm 32.1 29.0 13.3 31 11.3 NNE 22 33 12 18 1014.1 1014.0 0.0
30/11:30am 32.1 29.9 16.0 38 10.1 NE 22 37 12 20 1014.5 1014.4 0.0
30/11:00am 31.4 30.1 16.9 41 9.2 NNE 19 28 10 15 1014.9 1014.8 0.0
30/10:30am 31.4 30.2 18.4 46 8.4 N 22 32 12 17 1015.1 1015.0 0.0
30/10:00am 30.4 30.7 19.7 52 7.0 NE 17 26 9 14 1015.3 1015.2 0.0
30/09:30am 29.5 30.0 18.3 51 7.2 NE 13 19 7 10 1015.4 1015.3 0.0
30/09:00am 27.7 30.0 19.8 62 5.1 NW 7 9 4 5 1015.3 1015.2 0.0
30/08:30am 26.2 28.9 20.3 70 3.9 WNW 6 9 3 5 1015.2 1015.1 0.0
30/08:00am 24.8 28.0 20.5 77 2.8 SW 4 7 2 4 1015.0 1014.9 0.0
30/07:30am 23.2 26.3 20.2 83 1.9 SSW 4 7 2 4 1014.9 1014.8 0.0
30/07:00am 21.2 24.7 19.5 90 1.1 CALM 0 0 0 0 1014.3 1014.2 0.0
30/06:30am 19.8 22.7 18.1 90 1.1 CALM 0 0 0 0 1014.0 1013.9 0.0
30/06:00am 20.0 23.0 18.5 91 0.9 CALM 0 0 0 0 1013.7 1013.6 0.0
30/05:30am 20.2 23.5 19.0 93 0.8 CALM 0 6 0 3 1013.5 1013.4 0.0
30/05:00am 20.2 22.1 19.0 93 0.8 SSW 7 7 4 4 1013.2 1013.1 0.0
30/04:30am 19.8 21.4 17.9 89 1.2 S 6 9 3 5 1012.9 1012.8 0.0
30/04:00am 20.8 24.1 19.1 90 1.1 CALM 0 0 0 0 1012.8 1012.7 0.0
30/03:30am 21.5 23.8 19.4 88 1.3 N 6 7 3 4 1012.5 1012.4 0.0
30/03:00am 22.1 25.3 19.8 87 1.5 N 2 9 1 5 1012.6 1012.5 0.0
30/02:30am 22.7 24.4 20.2 86 1.6 NNE 11 17 6 9 1012.5 1012.4 0.0
30/02:00am 23.0 24.0 20.3 85 1.7 NE 15 20 8 11 1012.7 1012.6 0.0
30/01:30am 22.9 24.7 20.4 86 1.6 NE 11 15 6 8 1013.0 1012.9 0.0
30/01:00am 22.5 24.7 20.4 88 1.4 NNE 9 11 5 6 1013.4 1013.3 0.0
30/12:30am 22.2 24.5 17.8 76 2.7 NNE 2 7 1 4 1013.7 1013.6 0.0
30/12:00am 22.9 27.0 20.8 88 1.4 CALM 0 0 0 0 1014.0 1013.9 0.0
 
Date/Time
CST
Temp
°C
App
Temp
°C
Dew
Point
Rel
Hum
%
Delta-T
°C
Wind Press
QNH
hPa
Press
MSL
hPa
Rain
since 9 am
mm
Dir
 
Spd
km/h
Gust
km/h
Spd
kts
Gust
kts
29/11:30pm 22.9 26.7 20.1 84 1.8 CALM 0 0 0 0 1014.2 1014.1 0.0
29/11:00pm 23.8 26.6 20.5 82 2.1 NNE 6 7 3 4 1014.5 1014.4 0.0
29/10:30pm 24.1 27.0 20.6 81 2.3 NNE 6 7 3 4 1014.6 1014.5 0.0
29/10:00pm 24.3 27.0 20.6 80 2.4 NNE 7 9 4 5 1014.6 1014.5 0.0
29/09:30pm 24.7 27.0 20.6 78 2.7 NNE 9 15 5 8 1014.5 1014.4 0.0
29/09:00pm 25.3 27.0 21.0 77 2.8 NNE 13 22 7 12 1014.3 1014.2 0.0
29/08:30pm 25.6 26.5 20.8 75 3.2 NNE 17 22 9 12 1014.0 1013.9 0.0
29/08:00pm 26.0 26.6 20.3 71 3.7 NNE 17 24 9 13 1013.7 1013.6 0.0
29/07:30pm 26.4 26.2 19.3 65 4.6 NNE 19 24 10 13 1013.3 1013.2 0.0
29/07:00pm 27.1 26.7 18.9 61 5.3 NNE 19 24 10 13 1013.0 1012.9 0.0
29/06:30pm 27.7 27.5 18.4 57 5.9 NNE 17 24 9 13 1012.5 1012.4 0.0
29/06:00pm 28.9 28.5 18.1 52 6.9 NNE 17 26 9 14 1012.1 1012.0 0.0
29/05:30pm 29.8 28.7 17.3 47 7.9 NNE 19 26 10 14 1011.7 1011.6 0.0
29/05:00pm 31.3 29.5 16.1 40 9.5 N 20 28 11 15 1011.3 1011.2 0.0
29/04:30pm 31.6 29.8 16.0 39 9.7 N 20 30 11 16 1011.1 1011.0 0.0
29/04:00pm 31.9 30.0 15.8 38 10.0 N 20 32 11 17 1010.9 1010.8 0.0
29/03:30pm 32.3 29.5 14.4 33 11.0 N 22 32 12 17 1010.8 1010.7 0.0
29/03:00pm 33.3 30.7 13.9 31 11.8 N 20 28 11 15 1010.8 1010.7 0.0
29/02:30pm 32.7 30.3 13.8 31 11.5 NNE 19 28 10 15 1011.0 1010.9 0.0
29/02:00pm 33.0 31.8 15.0 33 11.1 NNE 15 19 8 10 1011.3 1011.2 0.0
29/01:30pm 31.8 29.3 16.1 38 9.8 NE 24 33 13 18 1011.7 1011.6 0.0
29/01:00pm 32.0 29.8 15.9 38 10.1 NNE 22 32 12 17 1012.2 1012.1 0.0
29/12:30pm 32.4 30.9 16.7 39 9.9 N 20 32 11 17 1012.6 1012.5 0.0
29/12:00pm 32.1 29.8 17.6 42 9.3 N 26 32 14 17 1013.1 1013.0 0.0
29/11:30am 31.3 29.5 14.4 35 10.3 NNE 17 22 9 12 1013.8 1013.7 0.0
29/11:00am 31.2 29.9 16.8 42 9.1 N 19 32 10 17 1014.3 1014.2 0.0
29/10:30am 30.3 29.8 17.7 46 8.0 N 17 28 9 15 1014.6 1014.5 0.0
29/10:00am 27.7 27.5 18.4 57 5.9 NNE 17 24 9 13 1014.7 1014.6 0.0
29/09:30am 27.5 28.8 18.5 58 5.7 NNE 9 15 5 8 1014.4 1014.3 0.0
29/09:00am 26.6 28.0 18.7 62 5.0 NE 9 17 5 9 1014.4 1014.3 0.0
29/08:30am 25.5 28.4 18.2 64 4.6 CALM 0 7 0 4 1014.3 1014.2 0.0
29/08:00am 23.1 24.0 17.6 71 3.4 S 9 11 5 6 1014.3 1014.2 0.0
29/07:30am 21.1 22.9 15.6 71 3.3 CALM 0 0 0 0 1014.0 1013.9 0.0
29/07:00am 18.5 19.9 14.4 77 2.4 CALM 0 0 0 0 1013.7 1013.6 0.0
29/06:30am 16.5 17.2 12.3 76 2.3 CALM 0 0 0 0 1013.4 1013.3 0.0
29/06:00am 16.5 17.6 13.4 82 1.7 CALM 0 0 0 0 1013.2 1013.1 0.0
29/05:30am 16.4 16.9 12.8 79 2.0 NW 2 6 1 3 1012.8 1012.7 0.0
29/05:00am 16.3 16.6 12.1 76 2.3 WSW 2 9 1 5 1012.5 1012.4 0.0
29/04:30am 16.5 16.0 11.9 74 2.5 S 6 7 3 4 1012.1 1012.0 0.0
29/04:00am 16.6 17.0 11.3 71 2.9 CALM 0 0 0 0 1011.8 1011.7 0.0
29/03:30am 16.6 15.6 10.2 66 3.4 ESE 6 9 3 5 1011.6 1011.5 0.0
29/03:00am 16.7 17.2 11.6 72 2.8 CALM 0 0 0 0 1011.6 1011.5 0.0
29/02:30am 17.3 17.9 11.8 70 3.0 CALM 0 0 0 0 1011.9 1011.8 0.0
29/02:00am 17.9 19.0 13.4 75 2.5 CALM 0 0 0 0 1012.2 1012.1 0.0
29/01:30am 18.2 19.2 13.1 72 2.9 CALM 0 0 0 0 1012.4 1012.3 0.0
29/01:00am 18.7 19.9 13.8 73 2.8 CALM 0 0 0 0 1012.6 1012.5 0.0
29/12:30am 19.0 19.3 14.5 75 2.6 ESE 6 6 3 3 1012.7 1012.6 0.0
29/12:00am 20.0 19.8 14.8 72 3.0 ESE 9 11 5 6 1012.9 1012.8 0.0
 
Date/Time
CST
Temp
°C
App
Temp
°C
Dew
Point
Rel
Hum
%
Delta-T
°C
Wind Press
QNH
hPa
Press
MSL
hPa
Rain
since 9 am
mm
Dir
 
Spd
km/h
Gust
km/h
Spd
kts
Gust
kts
28/11:30pm 19.9 18.7 12.9 64 4.0 SE 11 13 6 7 1013.0 1012.9 0.0
28/11:00pm 20.5 21.2 12.2 59 4.7 CALM 0 0 0 0 1013.0 1012.9 0.0
28/10:30pm 21.5 22.5 13.2 59 4.8 CALM 0 0 0 0 1012.9 1012.8 0.0
28/10:00pm 22.3 22.3 14.2 60 4.7 N 7 7 4 4 1012.9 1012.8 0.0
28/09:30pm 23.2 23.3 14.5 58 5.1 NNE 7 9 4 5 1012.8 1012.7 0.0
28/09:00pm 24.0 24.1 14.4 55 5.7 NNE 7 9 4 5 1012.8 1012.7 0.0
28/08:30pm 24.7 24.7 14.2 52 6.2 NNE 7 9 4 5 1012.6 1012.5 0.0
28/08:00pm 25.1 24.4 13.3 48 6.9 NNE 9 13 5 7 1012.3 1012.2 0.0
28/07:30pm 26.3 24.1 9.2 34 9.4 NNE 11 13 6 7 1011.9 1011.8 0.0
28/07:00pm 27.6 25.9 8.5 30 10.4 NNE 7 11 4 6 1011.6 1011.5 0.0
28/06:30pm 29.0 26.4 9.2 29 11.0 NNE 13 20 7 11 1011.1 1011.0 0.0
28/06:00pm 31.3 26.5 2.5 16 14.5 NE 17 20 9 11 1010.5 1010.4 0.0
28/05:30pm 32.5 26.5 -1.7 11 16.2 NE 20 28 11 15 1010.1 1010.0 0.0
28/05:00pm 33.6 27.7 -0.9 11 16.6 ENE 20 24 11 13 1009.8 1009.7 0.0
28/04:30pm 34.2 27.6 -0.4 11 16.9 NNE 24 30 13 16 1009.7 1009.6 0.0
28/04:00pm 35.0 29.8 0.2 11 17.2 ENE 17 28 9 15 1009.8 1009.7 0.0
28/03:30pm 37.0 31.8 -6.5 6 19.7 NE 13 19 7 10 1009.8 1009.7 0.0
28/03:00pm 36.9 33.0 -4.5 7 19.3 W 7 13 4 7 1010.2 1010.1 0.0
28/02:30pm 36.5 32.2 -4.8 7 19.1 SSW 9 24 5 13 1010.6 1010.5 0.0
28/02:00pm 36.8 30.4 -4.6 7 19.2 SE 20 24 11 13 1011.1 1011.0 0.0
28/01:30pm 36.6 31.9 -4.7 7 19.1 SE 11 17 6 9 1011.5 1011.4 0.0
28/01:00pm 36.1 32.2 -5.1 7 18.9 WSW 7 15 4 8 1012.1 1012.0 0.0
28/12:30pm 35.8 31.3 -3.5 8 18.4 E 11 17 6 9 1012.9 1012.8 0.0
28/12:00pm 35.1 31.1 -5.8 7 18.4 S 7 13 4 7 1013.4 1013.3 0.0
28/11:30am 35.5 30.6 -3.8 8 18.3 SE 13 26 7 14 1013.8 1013.7 0.0
28/11:00am 34.4 29.3 -1.6 10 17.3 ESE 15 24 8 13 1014.3 1014.2 0.0
28/10:30am 33.9 27.3 -0.7 11 16.8 ESE 24 30 13 16 1014.7 1014.6 0.0
28/10:00am 32.3 29.1 3.3 16 14.9 SSE 9 20 5 11 1014.9 1014.8 0.0
28/09:30am 31.8 29.1 7.5 22 13.3 S 11 17 6 9 1015.1 1015.0 0.0

Other Formats:

Comma delimited format used in spreadsheet applications
http://www.bom.gov.au/fwo/IDD60801/IDD60801.94152.axf

JavaScript Object Notation format (JSON) in row-major order
http://www.bom.gov.au/fwo/IDD60801/IDD60801.94152.json